sensor_id;sensor_type;location;lat;lon;timestamp;P1;durP1;ratioP1;P2;durP2;ratioP2
57323;SDS011;43160;51.008;18.248;2024-02-23T00:00:53;9.70;;;3.70;;
57323;SDS011;43160;51.008;18.248;2024-02-23T00:10:36;13.50;;;5.20;;
57323;SDS011;43160;51.008;18.248;2024-02-23T00:20:20;14.30;;;5.90;;
57323;SDS011;43160;51.008;18.248;2024-02-23T00:30:05;11.70;;;5.60;;
57323;SDS011;43160;51.008;18.248;2024-02-23T00:47:08;15.70;;;5.20;;
57323;SDS011;43160;51.008;18.248;2024-02-23T00:56:52;13.80;;;5.10;;
57323;SDS011;43160;51.008;18.248;2024-02-23T01:06:35;15.30;;;6.30;;
57323;SDS011;43160;51.008;18.248;2024-02-23T01:16:22;11.10;;;3.90;;
57323;SDS011;43160;51.008;18.248;2024-02-23T01:26:05;13.60;;;6.30;;
57323;SDS011;43160;51.008;18.248;2024-02-23T01:35:48;11.20;;;4.60;;
57323;SDS011;43160;51.008;18.248;2024-02-23T01:45:38;15.60;;;6.40;;
57323;SDS011;43160;51.008;18.248;2024-02-23T01:55:22;11.40;;;3.90;;
57323;SDS011;43160;51.008;18.248;2024-02-23T02:05:08;13.80;;;6.00;;
57323;SDS011;43160;51.008;18.248;2024-02-23T02:14:53;11.20;;;4.70;;
57323;SDS011;43160;51.008;18.248;2024-02-23T02:24:39;11.00;;;4.40;;
57323;SDS011;43160;51.008;18.248;2024-02-23T02:34:26;16.30;;;5.20;;
57323;SDS011;43160;51.008;18.248;2024-02-23T02:44:09;9.30;;;2.60;;
57323;SDS011;43160;51.008;18.248;2024-02-23T02:53:53;15.80;;;6.30;;
57323;SDS011;43160;51.008;18.248;2024-02-23T03:03:35;13.90;;;6.10;;
57323;SDS011;43160;51.008;18.248;2024-02-23T03:13:20;10.30;;;4.10;;
57323;SDS011;43160;51.008;18.248;2024-02-23T03:23:07;17.00;;;3.60;;
57323;SDS011;43160;51.008;18.248;2024-02-23T03:32:50;16.30;;;6.00;;
57323;SDS011;43160;51.008;18.248;2024-02-23T03:42:35;17.10;;;5.50;;
57323;SDS011;43160;51.008;18.248;2024-02-23T03:52:19;12.70;;;4.20;;
57323;SDS011;43160;51.008;18.248;2024-02-23T04:02:03;13.80;;;5.40;;
57323;SDS011;43160;51.008;18.248;2024-02-23T04:11:48;21.50;;;5.60;;
57323;SDS011;43160;51.008;18.248;2024-02-23T04:21:31;16.20;;;6.30;;
57323;SDS011;43160;51.008;18.248;2024-02-23T04:31:14;14.90;;;5.80;;
57323;SDS011;43160;51.008;18.248;2024-02-23T04:41:04;14.40;;;5.50;;
57323;SDS011;43160;51.008;18.248;2024-02-23T04:50:50;11.00;;;4.00;;
57323;SDS011;43160;51.008;18.248;2024-02-23T05:00:34;15.00;;;6.70;;
57323;SDS011;43160;51.008;18.248;2024-02-23T05:10:21;16.00;;;6.30;;
57323;SDS011;43160;51.008;18.248;2024-02-23T05:20:05;10.70;;;4.30;;
57323;SDS011;43160;51.008;18.248;2024-02-23T05:29:56;15.40;;;5.50;;
57323;SDS011;43160;51.008;18.248;2024-02-23T05:39:43;15.20;;;4.70;;
57323;SDS011;43160;51.008;18.248;2024-02-23T05:49:28;14.50;;;4.90;;
57323;SDS011;43160;51.008;18.248;2024-02-23T05:59:12;16.20;;;4.60;;
57323;SDS011;43160;51.008;18.248;2024-02-23T06:08:56;17.60;;;4.30;;
57323;SDS011;43160;51.008;18.248;2024-02-23T06:18:41;12.60;;;5.10;;
57323;SDS011;43160;51.008;18.248;2024-02-23T06:28:31;14.00;;;5.90;;
57323;SDS011;43160;51.008;18.248;2024-02-23T06:38:14;11.70;;;4.70;;
57323;SDS011;43160;51.008;18.248;2024-02-23T06:47:57;10.50;;;4.50;;
57323;SDS011;43160;51.008;18.248;2024-02-23T06:57:42;15.20;;;3.50;;
57323;SDS011;43160;51.008;18.248;2024-02-23T07:07:34;20.80;;;7.60;;
57323;SDS011;43160;51.008;18.248;2024-02-23T07:17:21;13.20;;;5.30;;
57323;SDS011;43160;51.008;18.248;2024-02-23T07:27:09;13.30;;;4.80;;
57323;SDS011;43160;51.008;18.248;2024-02-23T07:36:53;33.50;;;11.00;;
57323;SDS011;43160;51.008;18.248;2024-02-23T07:46:37;19.00;;;5.90;;
57323;SDS011;43160;51.008;18.248;2024-02-23T07:56:23;14.70;;;4.50;;
57323;SDS011;43160;51.008;18.248;2024-02-23T08:06:07;25.20;;;8.30;;
57323;SDS011;43160;51.008;18.248;2024-02-23T08:15:53;15.20;;;7.10;;
57323;SDS011;43160;51.008;18.248;2024-02-23T08:25:36;15.10;;;5.60;;
57323;SDS011;43160;51.008;18.248;2024-02-23T08:35:20;16.40;;;5.40;;
57323;SDS011;43160;51.008;18.248;2024-02-23T08:45:03;11.20;;;3.70;;
57323;SDS011;43160;51.008;18.248;2024-02-23T08:54:51;21.40;;;4.40;;
57323;SDS011;43160;51.008;18.248;2024-02-23T09:04:37;15.20;;;5.00;;
57323;SDS011;43160;51.008;18.248;2024-02-23T09:14:21;17.30;;;4.20;;
57323;SDS011;43160;51.008;18.248;2024-02-23T09:24:08;7.90;;;2.30;;
57323;SDS011;43160;51.008;18.248;2024-02-23T09:33:54;7.30;;;2.10;;
57323;SDS011;43160;51.008;18.248;2024-02-23T09:43:46;10.10;;;3.40;;
57323;SDS011;43160;51.008;18.248;2024-02-23T09:53:36;9.00;;;2.70;;
57323;SDS011;43160;51.008;18.248;2024-02-23T10:03:23;9.20;;;3.10;;
57323;SDS011;43160;51.008;18.248;2024-02-23T10:13:11;3.70;;;1.60;;
57323;SDS011;43160;51.008;18.248;2024-02-23T10:22:54;13.70;;;2.50;;
57323;SDS011;43160;51.008;18.248;2024-02-23T10:32:40;9.80;;;2.50;;
57323;SDS011;43160;51.008;18.248;2024-02-23T10:42:34;7.20;;;2.40;;
57323;SDS011;43160;51.008;18.248;2024-02-23T10:52:19;9.10;;;2.90;;
57323;SDS011;43160;51.008;18.248;2024-02-23T11:02:05;8.30;;;2.20;;
57323;SDS011;43160;51.008;18.248;2024-02-23T11:11:57;9.50;;;2.50;;
57323;SDS011;43160;51.008;18.248;2024-02-23T11:21:57;8.60;;;2.90;;
57323;SDS011;43160;51.008;18.248;2024-02-23T11:31:47;6.80;;;2.50;;
57323;SDS011;43160;51.008;18.248;2024-02-23T11:41:31;9.30;;;1.90;;
57323;SDS011;43160;51.008;18.248;2024-02-23T11:51:23;7.10;;;2.10;;
57323;SDS011;43160;51.008;18.248;2024-02-23T12:01:10;7.80;;;2.20;;
57323;SDS011;43160;51.008;18.248;2024-02-23T12:11:06;7.80;;;2.30;;
57323;SDS011;43160;51.008;18.248;2024-02-23T12:21:00;9.50;;;3.10;;
57323;SDS011;43160;51.008;18.248;2024-02-23T12:26:14;8.80;;;2.50;;
57323;SDS011;43160;51.008;18.248;2024-02-23T12:36:03;22.70;;;10.30;;
57323;SDS011;43160;51.008;18.248;2024-02-23T12:45:51;14.10;;;3.70;;
57323;SDS011;43160;51.008;18.248;2024-02-23T12:55:38;11.70;;;3.20;;
57323;SDS011;43160;51.008;18.248;2024-02-23T13:05:22;29.30;;;7.80;;
57323;SDS011;43160;51.008;18.248;2024-02-23T13:15:06;15.30;;;4.20;;
57323;SDS011;43160;51.008;18.248;2024-02-23T13:24:50;14.80;;;6.00;;
57323;SDS011;43160;51.008;18.248;2024-02-23T13:34:33;27.40;;;13.60;;
57323;SDS011;43160;51.008;18.248;2024-02-23T13:44:16;11.80;;;4.70;;
57323;SDS011;43160;51.008;18.248;2024-02-23T13:54:01;10.90;;;4.20;;
57323;SDS011;43160;51.008;18.248;2024-02-23T14:03:45;7.90;;;3.30;;
57323;SDS011;43160;51.008;18.248;2024-02-23T14:13:33;11.70;;;3.70;;
57323;SDS011;43160;51.008;18.248;2024-02-23T14:23:18;18.40;;;6.50;;
57323;SDS011;43160;51.008;18.248;2024-02-23T14:33:02;16.50;;;6.30;;
57323;SDS011;43160;51.008;18.248;2024-02-23T14:42:45;14.40;;;4.20;;
57323;SDS011;43160;51.008;18.248;2024-02-23T14:52:31;8.70;;;2.90;;
57323;SDS011;43160;51.008;18.248;2024-02-23T15:02:18;11.20;;;2.70;;
57323;SDS011;43160;51.008;18.248;2024-02-23T15:12:03;16.10;;;7.20;;
57323;SDS011;43160;51.008;18.248;2024-02-23T15:21:52;9.50;;;3.70;;
57323;SDS011;43160;51.008;18.248;2024-02-23T15:31:38;31.50;;;14.60;;
57323;SDS011;43160;51.008;18.248;2024-02-23T15:41:28;27.80;;;11.30;;
57323;SDS011;43160;51.008;18.248;2024-02-23T15:51:13;17.10;;;5.80;;
57323;SDS011;43160;51.008;18.248;2024-02-23T16:00:57;25.20;;;8.30;;
57323;SDS011;43160;51.008;18.248;2024-02-23T16:10:40;16.90;;;6.70;;
57323;SDS011;43160;51.008;18.248;2024-02-23T16:20:24;22.20;;;6.90;;
57323;SDS011;43160;51.008;18.248;2024-02-23T16:30:09;29.90;;;13.30;;
57323;SDS011;43160;51.008;18.248;2024-02-23T16:39:56;22.10;;;11.50;;
57323;SDS011;43160;51.008;18.248;2024-02-23T16:49:41;28.10;;;9.00;;
57323;SDS011;43160;51.008;18.248;2024-02-23T16:59:25;48.80;;;16.00;;
57323;SDS011;43160;51.008;18.248;2024-02-23T17:09:08;46.40;;;19.00;;
57323;SDS011;43160;51.008;18.248;2024-02-23T17:18:56;38.40;;;14.60;;
57323;SDS011;43160;51.008;18.248;2024-02-23T17:28:40;60.60;;;15.90;;
57323;SDS011;43160;51.008;18.248;2024-02-23T17:38:25;39.70;;;16.10;;
57323;SDS011;43160;51.008;18.248;2024-02-23T17:55:28;17.70;;;7.10;;
57323;SDS011;43160;51.008;18.248;2024-02-23T18:05:12;29.70;;;10.20;;
57323;SDS011;43160;51.008;18.248;2024-02-23T18:14:59;67.00;;;22.40;;
57323;SDS011;43160;51.008;18.248;2024-02-23T18:24:43;46.20;;;17.10;;
57323;SDS011;43160;51.008;18.248;2024-02-23T18:34:27;31.80;;;11.90;;
57323;SDS011;43160;51.008;18.248;2024-02-23T18:44:13;27.00;;;10.00;;
57323;SDS011;43160;51.008;18.248;2024-02-23T18:53:57;26.30;;;11.80;;
57323;SDS011;43160;51.008;18.248;2024-02-23T19:03:41;31.00;;;12.00;;
57323;SDS011;43160;51.008;18.248;2024-02-23T19:13:25;22.30;;;9.70;;
57323;SDS011;43160;51.008;18.248;2024-02-23T19:23:10;34.80;;;11.30;;
57323;SDS011;43160;51.008;18.248;2024-02-23T19:32:54;22.80;;;11.70;;
57323;SDS011;43160;51.008;18.248;2024-02-23T19:42:42;31.10;;;14.60;;
57323;SDS011;43160;51.008;18.248;2024-02-23T19:52:30;36.70;;;16.10;;
57323;SDS011;43160;51.008;18.248;2024-02-23T20:02:13;38.40;;;15.80;;
57323;SDS011;43160;51.008;18.248;2024-02-23T20:12:07;22.40;;;10.10;;
57323;SDS011;43160;51.008;18.248;2024-02-23T20:29:11;42.80;;;16.60;;
57323;SDS011;43160;51.008;18.248;2024-02-23T20:39:00;35.80;;;16.90;;
57323;SDS011;43160;51.008;18.248;2024-02-23T20:48:45;33.00;;;14.60;;
57323;SDS011;43160;51.008;18.248;2024-02-23T20:58:29;40.60;;;16.80;;
57323;SDS011;43160;51.008;18.248;2024-02-23T21:08:13;32.70;;;13.00;;
57323;SDS011;43160;51.008;18.248;2024-02-23T21:17:59;40.60;;;14.60;;
57323;SDS011;43160;51.008;18.248;2024-02-23T21:27:44;34.60;;;14.40;;
57323;SDS011;43160;51.008;18.248;2024-02-23T21:37:29;36.60;;;15.10;;
57323;SDS011;43160;51.008;18.248;2024-02-23T21:47:14;29.80;;;14.80;;
57323;SDS011;43160;51.008;18.248;2024-02-23T21:56:59;30.90;;;15.10;;
57323;SDS011;43160;51.008;18.248;2024-02-23T22:06:56;35.60;;;12.80;;
57323;SDS011;43160;51.008;18.248;2024-02-23T22:16:40;34.60;;;14.10;;
57323;SDS011;43160;51.008;18.248;2024-02-23T22:26:26;28.90;;;11.40;;
57323;SDS011;43160;51.008;18.248;2024-02-23T22:36:09;35.50;;;15.40;;
57323;SDS011;43160;51.008;18.248;2024-02-23T22:45:53;28.90;;;13.60;;
57323;SDS011;43160;51.008;18.248;2024-02-23T22:55:42;56.20;;;17.30;;
57323;SDS011;43160;51.008;18.248;2024-02-23T23:05:25;38.30;;;15.00;;
57323;SDS011;43160;51.008;18.248;2024-02-23T23:12:44;47.20;;;24.90;;
57323;SDS011;43160;51.008;18.248;2024-02-23T23:22:30;28.50;;;12.60;;
57323;SDS011;43160;51.008;18.248;2024-02-23T23:32:14;30.60;;;12.00;;
57323;SDS011;43160;51.008;18.248;2024-02-23T23:41:58;26.40;;;10.60;;
57323;SDS011;43160;51.008;18.248;2024-02-23T23:51:42;33.50;;;14.80;;
